Tiempo atmosférico en la estación meteorológica de Villafranca De Los Barros, Badajoz (430 m.)



Fecha
DESCASC
Temp. máxima en grados centígrados (hora)
DESCASC
Temp. mínima en grados centígrados (hora)
DESCASC
Temp. media en grados centígrados
DESCASC
Racha de viento máxima en m/sg (hora)
DESCASC
Velocidad máxima media en intervalos de 10 minutos(hora)
DESCASC
Precipitaciones diarias en mm
DESCASC
Precipitaciones de 00:00 a 06:00 en mm
DESCASC
Precipitaciones de 06:00 a 12:00 en mm
DESCASC
Precipitaciones de 12:00 a 18:00 en mm
DESCASC
Precipitaciones de 18:00 a 24:00 en mm
DESCASC
05-04-2020 20.5 (14:00) 7.8 (08:10) 14.2 13.89 (14:20) 9.72 (18:40) 0.4 0 0 0 0.4
04-04-2020 17.9 (14:20) 7.2 (05:20) 12.5 10.83 (14:50) 7.5 (13:00) 0 0 0 0 0
03-04-2020 20.4 (17:50) 4.2 (08:20) 12.3 6.94 (18:10) 5 (18:10) 0 0 0 0 0
02-04-2020 15.5 (18:20) 5.4 (00:00) 10.5 7.22 (14:40) 4.72 (15:20) 0.6 0.6 0 0 0
01-04-2020 13.5 (14:50) 2.9 (00:00) 8.2 9.17 (16:00) 6.39 (19:20) 1 0 0 0.4 0.6
31-03-2020 14.9 (15:10) 7.5 (00:00) 11.2 10.83 (14:30) 7.78 (13:20) -- -- -- -- 0
30-03-2020 14.3 (13:20) 5.9 (00:00) 10.1 6.67 (18:40) 4.72 (18:40) -- 0 0 -- --
29-03-2020 18.2 (17:30) 4.2 (00:00) 11.2 6.39 (19:50) 4.44 (19:50) 5.8 0 0 0 5.8
28-03-2020 17 (15:30) -0.2 (00:00) 8.4 8.06 (13:10) 4.17 (10:30) 0 0 0 0 0
27-03-2020 12.5 (18:30) 2.1 (00:00) 7.3 6.67 (18:30) 4.72 (18:50) 0 0 0 0 0
26-03-2020 19.3 (17:00) 7.3 (00:00) 13.3 14.17 (15:40) 8.61 (16:10) 0 0 0 0 0
25-03-2020 19.4 (16:20) 5.9 (00:00) 12.6 7.5 (16:40) 4.44 (23:59) 0 0 0 0 0
24-03-2020 17 (14:10) 7.2 (00:00) 12.1 12.78 (13:40) 8.33 (12:50) 0 0 0 0 0
23-03-2020 15.4 (15:50) 5.7 (00:00) 10.5 10.83 (16:00) 7.5 (16:00) 0 0 0 0 0
22-03-2020 14.8 (18:40) 5.6 (07:20) 10.2 7.78 (17:50) 4.17 (19:50) 0.4 0 0.2 0 0.2
21-03-2020 13.7 (13:40) 7.1 (00:00) 10.4 11.39 (14:40) 8.33 (14:40) 17.2 16.2 0 0.6 0.4
20-03-2020 15.5 (14:50) 9.4 (00:00) 12.4 8.33 (21:50) 5.83 (21:50) 16.4 0 0 0.6 15.8
19-03-2020 21.2 (16:40) 5.8 (00:00) 13.5 7.5 (16:40) 4.44 (17:10) 0 0 0 0 0
18-03-2020 21.5 (17:00) 10.4 (00:00) 15.9 10.56 (05:50) 6.11 (05:50) 0 0 0 0 0
17-03-2020 16.9 (17:40) 3.6 (00:00) 10.2 12.5 (12:40) 7.78 (12:40) 0.8 0.2 0.4 0 0.2
16-03-2020 11.3 (13:30) 3.4 (00:00) 7.4 17.22 (15:50) 10.83 (16:00) 1.6 0 0 0 1.6
15-03-2020 22.8 (15:40) 7.6 (00:00) 15.2 12.78 (22:00) 9.72 (22:30) 0 0 0 0 0
14-03-2020 23.4 (16:20) 6.1 (00:00) 14.7 8.89 (16:50) 4.44 (16:30) 0 0 0 0 0
13-03-2020 20.5 (16:20) 6 (07:20) 13.3 6.67 (16:50) 4.44 (17:30) 0 0 0 0 0
12-03-2020 26.1 (15:30) 9.3 (00:00) 17.7 10 (15:20) 6.11 (16:30) 0 0 0 0 0
11-03-2020 28.8 (14:40) 9.3 (00:00) 19 8.61 (13:20) 4.72 (12:20) 0 0 0 0 0

Gráficas

Temp. máximas Temp. mínimas Temp. medias Precipitaciones Rachas de viento máximas Velocidades máximas media en intervalos de 10 minutos

Datos horarios

Fecha y hora oficial Temperatura (ºC) Velocidad del viento (km/h) Dirección del viento Racha (km/h) Dirección de racha Precipitación (mm) Presión (hPa) Tendencia (hPa) Humedad (%)
2020-04-09 23:00:00 -- -- -- -- -- -- -- -- --
2020-04-09 22:00:00 14.6 3 Este 6 Nordeste 0.2 -- -- 97
2020-04-09 21:00:00 14.7 3 Norte 10 Norte 0.2 -- -- 96
2020-04-09 20:00:00 14.9 7 Norte 9 Norte 0 -- -- 95
2020-04-09 19:00:00 14.9 4 Nordeste 9 Noroeste 0.6 -- -- 96
2020-04-09 18:00:00 14.7 6 Noroeste 15 Oeste 2.8 -- -- 97
2020-04-09 17:00:00 14.6 9 Noroeste 16 Noroeste 3.6 -- -- 96
2020-04-09 16:00:00 14.6 12 Noroeste 19 Noroeste 2.8 -- -- 95
2020-04-09 15:00:00 15 14 Noroeste 25 Noroeste 1.8 -- -- 95
2020-04-09 14:00:00 16 16 Noroeste 24 Oeste 0 -- -- 90
2020-04-09 13:00:00 16.9 10 Noroeste 14 Noroeste 0 -- -- 88
2020-04-09 12:00:00 17.1 6 Noroeste 11 Oeste 0 -- -- 87
2020-04-09 11:00:00 16.8 6 Sudoeste 9 Sudoeste 0 -- -- 87
2020-04-09 10:00:00 15.8 3 Sudeste 6 Sudeste 0 -- -- 93
2020-04-09 09:00:00 14.7 2 Sudeste 4 Sudeste 0 -- -- 96
2020-04-09 08:00:00 14.6 0 Calma 4 Sur 0 -- -- 95
2020-04-09 07:00:00 14.8 0 Calma 6 Este 0 -- -- 94
2020-04-09 06:00:00 15 0 Calma 8 Sudoeste 0 -- -- 93
2020-04-09 05:00:00 15.2 3 Sudoeste 5 Sudoeste 0 -- -- 91
2020-04-09 04:00:00 15.6 6 Oeste 13 Oeste 0 -- -- 90
2020-04-09 03:00:00 15.6 6 Oeste 9 Oeste 0 -- -- 88
2020-04-09 02:00:00 15.7 0 Calma 4 Sudoeste 0 -- -- 85
2020-04-09 01:00:00 16.3 0 Calma 4 Sudoeste 0 -- -- 84
2020-04-09 00:00:00 16.7 5 Oeste 10 Oeste 0 -- -- 83
2020-04-08 23:00:00 17 6 Oeste 9 Oeste 0 -- -- 83
2020-04-08 22:00:00 17.5 4 Oeste 17 Oeste 0 -- -- 80
2020-04-08 21:00:00 18.6 14 Noroeste 19 Oeste 0 -- -- 78
2020-04-08 20:00:00 20.3 9 Noroeste 14 Noroeste 0 -- -- 64
2020-04-08 19:00:00 20.8 10 Oeste 22 Sudoeste 0 -- -- 60
2020-04-08 18:00:00 21.6 5 Este 15 Sur 0 -- -- 55
2020-04-08 17:00:00 22.1 9 Nordeste 20 Nordeste 0 -- -- 56
2020-04-08 16:00:00 21.6 8 Sudeste 18 Este 0 -- -- 56
2020-04-08 15:00:00 20.9 12 Sudeste 22 Sudeste 0 -- -- 62
2020-04-08 14:00:00 20 9 Este 21 Este 0 -- -- 65
2020-04-08 13:00:00 19.3 11 Este 18 Este 0 -- -- 75
2020-04-08 12:00:00 16.6 6 Sur 12 Sudeste 0 -- -- 87
2020-04-08 11:00:00 14.1 9 Sudeste 13 Sudeste 0 -- -- 98
2020-04-08 10:00:00 12.7 8 Sudeste 11 Sudeste 0 -- -- 98
2020-04-08 09:00:00 12.2 5 Sudeste 12 Sudeste 0 -- -- 99
2020-04-08 08:00:00 10.9 3 Sudeste 6 Sudeste 0 -- -- 98
2020-04-08 07:00:00 11.9 3 Sur 5 Sur 0 -- -- 98
2020-04-08 06:00:00 12.1 0 Calma 6 Noroeste 0 -- -- 98
2020-04-08 05:00:00 12.5 0 Calma 9 Norte 0 -- -- 98
2020-04-08 04:00:00 12.4 4 Sur 5 Sur 0 -- -- 97
2020-04-08 03:00:00 12.7 3 Sur 7 Sur 0 -- -- 97
2020-04-08 02:00:00 12.6 4 Sur 8 Sur 0 -- -- 98
2020-04-08 01:00:00 11.3 5 Sur 7 Sudeste 0 -- -- 96
2020-04-08 00:00:00 12.1 6 Sudeste 7 Sudeste 0 -- -- 96
2020-04-07 23:00:00 13.3 4 Sudeste 6 Sudeste 0 -- -- 92
2020-04-07 22:00:00 15.7 0 Calma 5 Nordeste 0 -- -- 90
2020-04-07 21:00:00 16.8 3 Norte 7 Norte 0 -- -- 87
2020-04-07 20:00:00 17.4 0 Calma 7 Sudoeste 0 -- -- 80
2020-04-07 19:00:00 17.3 5 Sudoeste 14 Sudoeste 0 -- -- 80
2020-04-07 18:00:00 17.1 9 Sudoeste 14 Sudoeste 0.2 -- -- 83
2020-04-07 17:00:00 16.7 10 Sur 22 Sudoeste 0 -- -- 84
2020-04-07 16:00:00 17.2 14 Sur 22 Sur 0 -- -- 82
2020-04-07 15:00:00 17.3 8 Sur 24 Sudoeste 0 -- -- 85
2020-04-07 14:00:00 17.5 8 Sur 19 Sudoeste 0 -- -- 78
2020-04-07 13:00:00 16 6 Sudeste 15 Sudoeste 0.2 -- -- 88
2020-04-07 12:00:00 15.4 9 Sur 18 Sur 0.2 -- -- 87
2020-04-07 11:00:00 14.8 10 Sur 19 Sur 0 -- -- 86
2020-04-07 10:00:00 14 11 Sur 18 Sur 0 -- -- 85
2020-04-07 09:00:00 13 6 Sudeste 21 Sudeste 0 -- -- 89
2020-04-07 08:00:00 12.3 16 Sur 25 Sur 0 -- -- 89
2020-04-07 07:00:00 13.5 18 Sur 24 Sur 0 -- -- 87
2020-04-07 06:00:00 13.9 8 Sur 21 Sur 0 -- -- 89
2020-04-07 05:00:00 14 10 Sur 21 Sur 0.2 -- -- 90
2020-04-07 04:00:00 13.7 10 Sur 17 Sudeste 0 -- -- 91
2020-04-07 03:00:00 13.7 9 Sudeste 17 Sudeste 0 -- -- 91
2020-04-07 02:00:00 13.8 11 Sur 16 Sur 0 -- -- 92
2020-04-07 01:00:00 14.1 10 Sudeste 16 Sur 0 -- -- 91
2020-04-07 00:00:00 14.1 8 Sur 13 Sudeste 0 -- -- 90
2020-04-06 23:00:00 14 7 Sudeste 15 Sudeste 0 -- -- 90
2020-04-06 22:00:00 15.3 13 Sur 23 Sur 0 -- -- 86
2020-04-06 21:00:00 16.4 20 Sur 26 Sur 0 -- -- 79
2020-04-06 20:00:00 17.3 18 Sur 26 Sur 0 -- -- 77
2020-04-06 19:00:00 18.3 17 Sur 31 Sur 0 -- -- 71
2020-04-06 18:00:00 18.8 20 Sudoeste 32 Sur 0 -- -- 68
2020-04-06 17:00:00 19.6 18 Sur 34 Sudoeste 0 -- -- 62
2020-04-06 16:00:00 19.5 18 Sur 27 Sur 0 -- -- 64
2020-04-06 15:00:00 18.7 15 Sudoeste 28 Sudoeste 0 -- -- 66
2020-04-06 14:00:00 18.1 14 Sudoeste 25 Sur 0 -- -- 68
2020-04-06 13:00:00 17.7 17 Sudoeste 27 Sur 0 -- -- 68
2020-04-06 12:00:00 17.1 18 Sudoeste 25 Sur 0 -- -- 72
2020-04-06 11:00:00 15.3 13 Sur 21 Sur 0 -- -- 80
2020-04-06 10:00:00 14.8 10 Sur 19 Sudeste 0 -- -- 87
2020-04-06 09:00:00 13.2 5 Sudeste 12 Sudeste 0 -- -- 94
2020-04-06 08:00:00 11.9 4 Sudeste 8 Este 0 -- -- 98
2020-04-06 07:00:00 11.1 6 Sur 9 Sur 0 -- -- 96
2020-04-06 06:00:00 12.1 4 Este 18 Sudoeste 0 -- -- 93
2020-04-06 05:00:00 12.8 13 Sudoeste 17 Sudoeste 0.2 -- -- 93
2020-04-06 04:00:00 13.4 13 Sur 18 Sur 0 -- -- 93
2020-04-06 03:00:00 14 13 Sudoeste 22 Sur 0 -- -- 92
2020-04-06 02:00:00 13.8 14 Sudoeste 28 Sur 0.2 -- -- 94
2020-04-06 01:00:00 14.1 17 Sur 30 Sur 0.6 -- -- 92
2020-04-06 00:00:00 14.7 10 Sur 22 Sur 0.2 -- -- 87
2020-04-05 23:00:00 15.1 16 Sur 36 Sur 0.2 -- -- 84
2020-04-05 22:00:00 16 24 Sur 39 Sur 0 -- -- 76
2020-04-05 21:00:00 16.5 20 Sur 41 Sur 0 -- -- 73
2020-04-05 20:00:00 17.6 27 Sur 44 Sur 0 -- -- 67
2020-04-05 19:00:00 18.5 29 Sur 48 Sur 0 -- -- 64
2020-04-05 18:00:00 19.5 31 Sur 47 Sur 0 -- -- 60
2020-04-05 17:00:00 19.8 33 Sur 48 Sur 0 -- -- 57
2020-04-05 16:00:00 19.4 27 Sur 40 Sudoeste 0 -- -- 57
2020-04-05 15:00:00 19.6 26 Sur 50 Sur 0 -- -- 56
2020-04-05 14:00:00 20.5 28 Sur 44 Sudoeste 0 -- -- 53
2020-04-05 13:00:00 19.2 26 Sur 40 Sur 0 -- -- 56
2020-04-05 12:00:00 18.2 28 Sur 40 Sur 0 -- -- 58
2020-04-05 11:00:00 15.4 24 Sudeste 40 Sudeste 0 -- -- 66
2020-04-05 10:00:00 12.1 12 Sudeste 18 Sudeste 0 -- -- 75
2020-04-05 09:00:00 9.7 10 Sudeste 16 Sudeste 0 -- -- 81
2020-04-05 08:00:00 8 11 Sudeste 23 Sur 0 -- -- 85
2020-04-05 07:00:00 8.7 18 Sudeste 25 Sudeste 0 -- -- 81
2020-04-05 06:00:00 9.2 18 Sudeste 26 Sudeste 0 -- -- 79
2020-04-05 05:00:00 9 18 Sudeste 24 Este 0 -- -- 83
2020-04-05 04:00:00 9.1 11 Sudeste 15 Sudeste 0 -- -- 83
2020-04-05 03:00:00 9.2 10 Sudeste 15 Sudeste 0 -- -- 86
2020-04-05 02:00:00 10.5 4 Sudeste 16 Sudeste 0 -- -- 84
2020-04-05 01:00:00 12.1 12 Sudeste 21 Sudeste 0 -- -- 78
2020-04-05 00:00:00 12.6 15 Sudeste 22 Sudeste 0 -- -- 78
2020-04-04 23:00:00 13.2 12 Sudeste 24 Sudeste 0 -- -- 73
2020-04-04 22:00:00 13.8 12 Sudeste 18 Sudeste 0 -- -- 72
2020-04-04 21:00:00 14.3 12 Sudeste 18 Sudeste 0 -- -- 68
2020-04-04 20:00:00 14.6 14 Sudeste 21 Sur 0 -- -- 67
2020-04-04 19:00:00 15.5 19 Sur 31 Sudeste 0 -- -- 59
2020-04-04 18:00:00 16.1 22 Sudeste 31 Sur 0 -- -- 56
2020-04-04 17:00:00 16.3 17 Sur 33 Sudeste 0 -- -- 53
2020-04-04 16:00:00 16.1 23 Sudeste 36 Sudeste 0 -- -- 50
2020-04-04 15:00:00 17.7 24 Sur 39 Sur 0 -- -- 44
2020-04-04 14:00:00 17.3 27 Sudeste 39 Sur 0 -- -- 44
2020-04-04 13:00:00 15.5 27 Sudeste 39 Sudeste 0 -- -- 52
2020-04-04 12:00:00 13.9 22 Sudeste 31 Sudeste 0 -- -- 64
2020-04-04 11:00:00 12.5 17 Sudeste 31 Sudeste 0 -- -- 72
2020-04-04 10:00:00 11.2 15 Sudeste 26 Sudeste 0 -- -- 75
2020-04-04 09:00:00 8.9 16 Sudeste 29 Sudeste 0 -- -- 82
2020-04-04 08:00:00 7.5 12 Sudeste 19 Sudeste 0 -- -- 84
2020-04-04 07:00:00 7.3 10 Sudeste 18 Sudeste 0 -- -- 85
2020-04-04 06:00:00 8.4 13 Sudeste 22 Sudeste 0 -- -- 81
2020-04-04 05:00:00 7.9 11 Sudeste 19 Sudeste 0 -- -- 85
2020-04-04 04:00:00 9 13 Sudeste 18 Sudeste 0 -- -- 82
2020-04-04 03:00:00 9.1 12 Sudeste 15 Sudeste 0 -- -- 82
2020-04-04 02:00:00 10 10 Sudeste 18 Sudeste 0 -- -- 79
2020-04-04 01:00:00 11 12 Sudeste 15 Sudeste 0 -- -- 77
2020-04-04 00:00:00 12 10 Sudeste 15 Sudeste 0 -- -- 74
2020-04-03 23:00:00 12.8 10 Sudeste 14 Sudeste 0 -- -- 72
2020-04-03 22:00:00 13.9 9 Sudeste 12 Sudeste 0 -- -- 64
2020-04-03 21:00:00 16.6 6 Sudeste 14 Sudeste 0 -- -- 52
2020-04-03 20:00:00 18.9 10 Sudeste 21 Sudeste 0 -- -- 41
2020-04-03 19:00:00 19.3 13 Sudeste 25 Sudeste 0 -- -- 42
2020-04-03 18:00:00 20.4 12 Sudeste 23 Sur 0 -- -- 41
2020-04-03 17:00:00 19.7 10 Sudeste 22 Este 0 -- -- 42
2020-04-03 16:00:00 19 8 Sudeste 23 Sudeste 0 -- -- 45
2020-04-03 15:00:00 18.6 6 Sudeste 22 Sudeste 0 -- -- 51
2020-04-03 14:00:00 18.2 8 Sudeste 19 Sudeste 0 -- -- 55
2020-04-03 13:00:00 16.9 9 Sudeste 17 Sudeste 0 -- -- 62
2020-04-03 12:00:00 15.3 8 Este 14 Este 0 -- -- 66
2020-04-03 11:00:00 13.4 2 Este 8 Nordeste 0 -- -- 76
2020-04-03 10:00:00 10.6 0 Calma 5 Sur 0 -- -- 85
2020-04-03 09:00:00 5.5 3 Sudeste 9 Sur 0 -- -- 98
2020-04-03 08:00:00 4.5 4 Sudeste 7 Sur 0 -- -- 96
2020-04-03 07:00:00 5.6 3 Sur 7 Sur 0 -- -- 95
2020-04-03 06:00:00 5.4 7 Sur 9 Sur 0 -- -- 96
2020-04-03 05:00:00 6.2 3 Sur 5 Sur 0 -- -- 93
2020-04-03 04:00:00 8 3 Sudoeste 9 Oeste 0 -- -- 90
2020-04-03 03:00:00 8.7 4 Sudoeste 12 Oeste 0 -- -- 86
2020-04-03 02:00:00 9.3 10 Oeste 14 Oeste 0 -- -- 84
2020-04-03 01:00:00 9.2 8 Oeste 14 Oeste 0 -- -- 82
2020-04-03 00:00:00 8.7 8 Sudoeste 12 Sudoeste 0 -- -- 83
2020-04-02 23:00:00 10.1 9 Sudoeste 12 Oeste 0 -- -- 78
2020-04-02 22:00:00 11.5 10 Oeste 13 Oeste 0 -- -- 74
2020-04-02 21:00:00 13.3 8 Oeste 22 Noroeste 0 -- -- 66
2020-04-02 20:00:00 15.1 14 Noroeste 24 Noroeste 0 -- -- 60
2020-04-02 19:00:00 15.3 14 Noroeste 22 Noroeste 0 -- -- 57
2020-04-02 18:00:00 15.4 9 Noroeste 20 Noroeste 0 -- -- 55
2020-04-02 17:00:00 14.8 14 Norte 24 Norte 0 -- -- 62
2020-04-02 16:00:00 13.7 9 Nordeste 25 Norte 0 -- -- 65
2020-04-02 15:00:00 12.5 13 Norte 26 Norte 0 -- -- 67
2020-04-02 14:00:00 11 13 Norte 20 Norte 0 -- -- 76
2020-04-02 13:00:00 9.6 10 Norte 19 Norte 0 -- -- 84
2020-04-02 12:00:00 9 13 Norte 19 Norte 0 -- -- 87
2020-04-02 11:00:00 7.8 11 Norte 18 Norte 0 -- -- 91
2020-04-02 10:00:00 7 11 Norte 15 Norte 0 -- -- 98
2020-04-02 09:00:00 5.8 4 Noroeste 11 Noroeste 0 -- -- 98
2020-04-02 08:00:00 5.6 6 Norte 8 Norte 0 -- -- 96
2020-04-02 07:00:00 6.9 4 Norte 9 Norte 0 -- -- 95
2020-04-02 06:00:00 7 3 Noroeste 10 Noroeste 0 -- -- 95
2020-04-02 05:00:00 7.5 5 Noroeste 12 Noroeste 0 -- -- 94
2020-04-02 04:00:00 8 6 Sur 13 Sudoeste 0.4 -- -- 94
2020-04-02 03:00:00 8.3 9 Sur 14 Sur 0.2 -- -- 90
2020-04-02 02:00:00 8.5 10 Sudeste 17 Sudeste 0 -- -- 94
2020-04-02 01:00:00 8.6 10 Sudeste 22 Sur 0 -- -- 92
2020-04-02 00:00:00 8.9 13 Sur 23 Sur 0.6 -- -- 90
2020-04-01 23:00:00 8.6 10 Sudeste 18 Sudeste 0 -- -- 88
2020-04-01 22:00:00 9.2 9 Sudeste 21 Sur 0 -- -- 83
2020-04-01 21:00:00 9.9 14 Sur 23 Sur 0 -- -- 79
2020-04-01 20:00:00 10.8 19 Sur 30 Sur 0 -- -- 73
2020-04-01 19:00:00 11.8 21 Sur 30 Sur 0 -- -- 70
2020-04-01 18:00:00 12 22 Sur 33 Sur 0.2 -- -- 69
2020-04-01 17:00:00 11.9 20 Sur 31 Sudoeste 0 -- -- 77
2020-04-01 16:00:00 10.2 16 Oeste 33 Oeste 0.2 -- -- 79
2020-04-01 15:00:00 13.5 10 Sur 26 Sur 0 -- -- 57
2020-04-01 14:00:00 12.6 21 Sur 30 Sudoeste 0 -- -- 71
2020-04-01 13:00:00 11.1 14 Sur 25 Sur 0 -- -- 68
2020-04-01 12:00:00 10.2 12 Sudoeste 20 Sur 0 -- -- 67
2020-04-01 11:00:00 10 10 Sudeste 16 Sudeste 0 -- -- 71
2020-04-01 10:00:00 7.2 9 Sudeste 12 Sudeste 0 -- -- 86
2020-04-01 09:00:00 4.3 3 Sur 11 Sur 0 -- -- 98
2020-04-01 08:00:00 2.9 6 Sur 8 Sur 0 -- -- 96
2020-04-01 07:00:00 3.8 6 Sudeste 9 Sur 0 -- -- 95
2020-04-01 06:00:00 4.6 5 Sur 7 Sur 0 -- -- 93
2020-04-01 05:00:00 5.8 0 Calma 6 Sudoeste 0 -- -- 93
2020-04-01 04:00:00 6.1 5 Oeste 5 Oeste 0 -- -- 93
2020-04-01 03:00:00 6.8 2 Oeste 5 Sudoeste 0 -- -- 92
2020-04-01 02:00:00 7.3 0 Calma 3 Oeste 0 -- -- 92
2020-04-01 01:00:00 7.7 2 Oeste 8 Oeste 0 -- -- 88
2020-04-01 00:00:00 7.5 0 Calma 11 Oeste 0 -- -- 92
2020-03-31 23:00:00 8 8 Noroeste 16 Oeste 0 -- -- 90
2020-03-31 22:00:00 9.2 12 Oeste 22 Sudoeste 0 -- -- 89
2020-03-31 21:00:00 10.3 13 Sudoeste 28 Oeste 0 -- -- 81
2020-03-31 20:00:00 12.2 18 Oeste 34 Oeste 0 -- -- 77
2020-03-31 19:00:00 13.4 21 Oeste 33 Oeste 0 -- -- 72
2020-03-31 18:00:00 14 17 Oeste 26 Oeste 0 -- -- 80
2020-03-31 17:00:00 13.9 15 Sudoeste 28 Sudoeste 0 -- -- 79
2020-03-31 16:00:00 13.2 11 Noroeste 38 Sudoeste 0 -- -- 93
2020-03-31 15:00:00 14.5 18 Sudoeste 39 Sudoeste 1.6 -- -- 85
2020-03-31 14:00:00 14.4 19 Sudoeste -- -- -- -- -- 78
2020-03-31 13:00:00 13.7 24 Sur 37 Sur -- -- -- 79
2020-03-31 12:00:00 11.8 16 Sudoeste 27 Sur -- -- -- 85
2020-03-31 11:00:00 11.3 15 Sudoeste 23 Sudoeste -- -- -- 86
2020-03-31 10:00:00 -- -- -- -- -- -- -- -- --
2020-03-31 09:00:00 8.9 5 Este -- -- -- -- -- 97
2020-03-31 08:00:00 -- -- -- -- -- -- -- -- --
2020-03-31 07:00:00 -- -- -- -- -- -- -- -- --
2020-03-31 06:00:00 8.9 13 Sudeste -- -- -- -- -- 97
2020-03-31 05:00:00 8.8 17 Sudeste 23 Sudeste -- -- -- 96
2020-03-31 04:00:00 8.8 15 Este -- -- -- -- -- 96
2020-03-31 03:00:00 8.8 10 Este 19 Este -- -- -- 95
2020-03-31 02:00:00 8.6 10 Este -- -- -- -- -- 94
2020-03-31 01:00:00 8.2 4 Este 10 Este -- -- -- 95
2020-03-31 00:00:00 7.9 5 Nordeste 12 Nordeste -- -- -- 94
2020-03-30 23:00:00 8.4 8 Este 10 Este -- -- -- 91
2020-03-30 22:00:00 8.8 6 Este 12 Este -- -- -- 89
2020-03-30 21:00:00 9.6 6 Sudeste 23 Sur -- -- -- 84
2020-03-30 20:00:00 10.3 15 Sudeste 24 Sur -- -- -- 84
2020-03-30 19:00:00 10.5 16 Sur 24 Sur -- -- -- 85
2020-03-30 18:00:00 11.1 13 Sudoeste 23 Sudoeste -- -- -- 83
2020-03-30 17:00:00 11.8 7 Norte 16 Noroeste -- -- -- 90
2020-03-30 16:00:00 12.1 15 Norte 24 Noroeste -- -- -- 88
2020-03-30 15:00:00 14 7 Este 12 Este 0 -- -- 75
2020-03-30 14:00:00 13.6 6 Este 13 Sudeste 0 -- -- 75
2020-03-30 13:00:00 13.9 6 Este 10 Sudeste 0 -- -- 78
2020-03-30 12:00:00 13.2 3 Este 10 Sur 0 -- -- 78
2020-03-30 11:00:00 11.5 6 Sudeste 9 Sur 0 -- -- 89
2020-03-30 10:00:00 9.8 5 Sudeste 8 Sudeste 0 -- -- 94
2020-03-30 09:00:00 7.9 5 Sur 12 Sur 0 -- -- 96
2020-03-30 08:00:00 5.9 5 Sur 8 Sur 0 -- -- 96
2020-03-30 07:00:00 7 4 Sur 8 Sur 0 -- -- 94
2020-03-30 06:00:00 6.9 6 Sur 8 Sur 0 -- -- 92
2020-03-30 05:00:00 8.1 3 Sur 6 Sudoeste 0 -- -- 92
2020-03-30 04:00:00 8.9 5 Sudoeste 8 Sudoeste 0 -- -- 90
2020-03-30 03:00:00 10.1 4 Sur 6 Sur 0 -- -- 89
2020-03-30 02:00:00 11.3 3 Sur 8 Sudoeste 0 -- -- 87
2020-03-30 01:00:00 11.5 5 Sur 7 Sur 0 -- -- 89
2020-03-30 00:00:00 12.1 3 Sudeste 9 Este 0 -- -- 87
2020-03-29 23:00:00 12.1 9 Este 10 Este 0.2 -- -- 84
2020-03-29 22:00:00 12.3 2 Nordeste 14 Norte 0.8 -- -- 81
2020-03-29 21:00:00 12.6 10 Norte 23 Noroeste 3 -- -- 85
2020-03-29 20:00:00 14 16 Oeste 23 Oeste 1.8 -- -- 73
2020-03-29 19:00:00 16.4 9 Noroeste 17 Noroeste 0 -- -- 58
2020-03-29 18:00:00 17.8 3 Sudeste 17 Oeste 0 -- -- 44
2020-03-29 17:00:00 17.9 5 Sudoeste 10 Oeste 0 -- -- 45
2020-03-29 16:00:00 17.3 4 Este 11 Noroeste 0 -- -- 48
2020-03-29 15:00:00 17.2 4 Oeste 12 Oeste 0 -- -- 47
2020-03-29 14:00:00 16.8 6 Norte 13 Este 0 -- -- 51
2020-03-29 13:00:00 16.9 5 Sudeste 14 Este 0 -- -- 52
2020-03-29 12:00:00 14.9 6 Noroeste 12 Noroeste 0 -- -- 56
2020-03-29 11:00:00 14.2 2 Nordeste 5 Sudeste 0 -- -- 63
2020-03-29 10:00:00 10.5 3 Sur 5 Sur 0 -- -- 81
2020-03-29 09:00:00 4.5 4 Sudeste 7 Sur 0 -- -- 95
2020-03-29 08:00:00 4.7 3 Sudeste 7 Sur 0 -- -- 93
2020-03-29 07:00:00 4.8 5 Sudeste 8 Sudeste 0 -- -- 91
2020-03-29 06:00:00 5.7 4 Sudeste 8 Sur 0 -- -- 91
2020-03-29 05:00:00 7.9 2 Norte 12 Sudoeste 0 -- -- 84
2020-03-29 03:00:00 8 9 Sur 15 Sur 0 -- -- 77
2020-03-29 01:00:00 8.6 14 Sur 17 Sur 0 -- -- 73
2020-03-29 00:00:00 6.6 5 Sur 8 Sur 0 -- -- 78
2020-03-28 23:00:00 7 3 Sudeste 6 Sur 0 -- -- 75
2020-03-28 22:00:00 8.3 5 Sur 6 Sur 0 -- -- 71
2020-03-28 21:00:00 10.7 0 Calma 3 Nordeste 0 -- -- 63
2020-03-28 20:00:00 13.9 3 Sur 10 Sur 0 -- -- 53
2020-03-28 19:00:00 16.5 10 Sur 15 Sudeste 0 -- -- 45
2020-03-28 18:00:00 16.2 8 Sudeste 22 Este 0 -- -- 46
2020-03-28 17:00:00 16.4 9 Este 19 Este 0 -- -- 46
2020-03-28 16:00:00 16.7 11 Este 27 Este 0 -- -- 46
2020-03-28 15:00:00 16.3 13 Este 24 Este 0 -- -- 52
2020-03-28 14:00:00 15.6 11 Este 29 Sudeste 0 -- -- 53
2020-03-28 13:00:00 14.4 10 Sudeste 22 Este 0 -- -- 59
2020-03-28 12:00:00 12.5 10 Este 22 Este 0 -- -- 65
2020-03-28 11:00:00 10.4 11 Sudeste 22 Sudeste 0 -- -- 71
2020-03-28 10:00:00 8.5 14 Este 21 Sudeste 0 -- -- 74
2020-03-28 09:00:00 5.8 10 Sudeste 15 Sudeste 0 -- -- 84
2020-03-28 08:00:00 3 7 Sudeste 12 Sudeste 0 -- -- 96
2020-03-28 07:00:00 1 5 Sudeste 7 Sur 0 -- -- 96
2020-03-28 06:00:00 0 3 Sudeste 5 Sur 0 -- -- 95
2020-03-28 05:00:00 0.1 4 Sudeste 6 Sur 0 -- -- 93
2020-03-28 04:00:00 1.2 2 Sur 8 Sur 0 -- -- 91
2020-03-28 03:00:00 2.8 4 Este 6 Sudeste 0 -- -- 89
2020-03-28 02:00:00 3.9 6 Este 9 Este 0 -- -- 87
2020-03-28 01:00:00 5.1 4 Este 9 Este 0 -- -- 82
2020-03-28 00:00:00 6.7 5 Este 18 Este 0 -- -- 73
2020-03-27 23:00:00 7.4 9 Este 17 Este 0 -- -- 72
2020-03-27 22:00:00 8.1 10 Este 15 Este 0 -- -- 72
2020-03-27 21:00:00 9.1 6 Este 13 Este 0 -- -- 69
2020-03-27 20:00:00 10.8 7 Nordeste 23 Este 0 -- -- 64
2020-03-27 19:00:00 12.2 15 Este 24 Nordeste 0 -- -- 61
2020-03-27 18:00:00 12.2 13 Este 23 Este 0 -- -- 66
2020-03-27 17:00:00 11.7 8 Nordeste 22 Nordeste 0 -- -- 68
2020-03-27 16:00:00 11.3 12 Nordeste 20 Nordeste 0 -- -- 69
2020-03-27 15:00:00 11.2 9 Nordeste 17 Nordeste 0 -- -- 70
2020-03-27 14:00:00 10.5 6 Nordeste 15 Este 0 -- -- 74
2020-03-27 13:00:00 9.4 7 Norte 15 Nordeste 0 -- -- 77
2020-03-27 12:00:00 8.7 7 Este 14 Este 0 -- -- 80
2020-03-27 11:00:00 7.8 4 Este 10 Sudoeste 0 -- -- 86
2020-03-27 10:00:00 6.6 6 Sudoeste 17 Sudoeste 0 -- -- 90
2020-03-27 09:00:00 5.4 8 Noroeste 14 Oeste 0 -- -- 98
2020-03-27 08:00:00 2.5 2 Norte 5 Sur 0 -- -- 97
2020-03-27 07:00:00 2.3 2 Sur 7 Sudoeste 0 -- -- 96
2020-03-27 06:00:00 2.6 5 Sur 5 Sur 0 -- -- 95
2020-03-27 05:00:00 3.4 5 Sur 8 Sur 0 -- -- 95
2020-03-27 04:00:00 3.9 0 Calma 4 Sudeste 0 -- -- 92
2020-03-27 03:00:00 5.7 3 Sur 10 Sudoeste 0 -- -- 93
2020-03-27 02:00:00 6.5 4 Sudoeste 9 Oeste 0 -- -- 88
2020-03-27 01:00:00 8.2 5 Oeste 13 Oeste 0 -- -- 85
2020-03-27 00:00:00 9.7 9 Oeste 19 Oeste 0 -- -- 81
2020-03-26 23:00:00 10.7 12 Oeste 26 Oeste 0 -- -- 77
2020-03-26 22:00:00 12.2 17 Oeste 29 Oeste 0 -- -- 72
2020-03-26 21:00:00 13.6 19 Noroeste 33 Noroeste 0 -- -- 66
2020-03-26 20:00:00 15.1 25 Noroeste 39 Oeste 0 -- -- 57
2020-03-26 19:00:00 17.1 24 Noroeste 42 Noroeste 0 -- -- 49
2020-03-26 18:00:00 18.2 29 Noroeste 43 Oeste 0 -- -- 44
2020-03-26 17:00:00 19.3 28 Oeste 44 Oeste 0 -- -- 39
2020-03-26 16:00:00 19.2 29 Oeste 51 Oeste 0 -- -- 43
2020-03-26 15:00:00 18.8 26 Oeste 39 Oeste 0 -- -- 45
2020-03-26 14:00:00 18 23 Noroeste 35 Noroeste 0 -- -- 48
2020-03-26 13:00:00 17.2 16 Noroeste 32 Oeste 0 -- -- 53
2020-03-26 12:00:00 15.9 15 Noroeste 30 Noroeste 0 -- -- 57
2020-03-26 11:00:00 14 15 Noroeste 24 Noroeste 0 -- -- 63
2020-03-26 10:00:00 12.3 17 Noroeste 23 Oeste 0 -- -- 72
2020-03-26 09:00:00 10.6 16 Noroeste 23 Noroeste 0 -- -- 81
2020-03-26 08:00:00 7.9 5 Oeste 9 Oeste 0 -- -- 89
2020-03-26 07:00:00 7.3 2 Sudeste 9 Sudoeste 0 -- -- 91
2020-03-26 06:00:00 8.3 4 Sudoeste 13 Oeste 0 -- -- 85
2020-03-26 05:00:00 9.8 12 Oeste 14 Oeste 0 -- -- 85
2020-03-26 04:00:00 10 10 Oeste 13 Oeste 0 -- -- 87
2020-03-26 03:00:00 10.5 4 Oeste 13 Sudoeste 0 -- -- 87
2020-03-26 02:00:00 11.5 9 Oeste 20 Sudoeste 0 -- -- 86
2020-03-26 01:00:00 12.2 13 Sudoeste 23 Sudoeste 0 -- -- 87
2020-03-26 00:00:00 12.4 16 Sudoeste 25 Sudoeste 0 -- -- 87
2020-03-25 23:00:00 13 15 Oeste 21 Oeste 0 -- -- 76
2020-03-25 22:00:00 12.9 8 Sudoeste 13 Oeste 0 -- -- 69
2020-03-25 21:00:00 14.1 9 Oeste 13 Oeste 0 -- -- 65
2020-03-25 20:00:00 16.3 10 Noroeste 21 Noroeste 0 -- -- 53
2020-03-25 19:00:00 18.1 13 Noroeste 22 Oeste 0 -- -- 47
2020-03-25 18:00:00 18.7 12 Noroeste 25 Noroeste 0 -- -- 42
2020-03-25 17:00:00 19 13 Noroeste 27 Noroeste 0 -- -- 45
2020-03-25 16:00:00 19 8 Norte 22 Oeste 0 -- -- 45
2020-03-25 15:00:00 18.3 6 Noroeste 20 Norte 0 -- -- 48
2020-03-25 14:00:00 17.7 6 Norte 15 Norte 0 -- -- 49
2020-03-25 13:00:00 16.7 8 Nordeste 16 Noroeste 0 -- -- 55
2020-03-25 12:00:00 15.3 5 Noroeste 13 Oeste 0 -- -- 66
2020-03-25 11:00:00 13 6 Sudeste 13 Sudeste 0 -- -- 69
2020-03-25 10:00:00 11.4 6 Sur 12 Sur 0 -- -- 80
2020-03-25 09:00:00 9.2 7 Sur 10 Sur 0 -- -- 90
2020-03-25 08:00:00 7.7 5 Sudoeste 6 Sudoeste 0 -- -- 96
2020-03-25 07:00:00 7.2 2 Sur 4 Sudeste 0 -- -- 96
2020-03-25 06:00:00 7 2 Noroeste 5 Norte 0 -- -- 95
2020-03-25 05:00:00 6 4 Sudoeste 8 Este 0 -- -- 95
2020-03-25 04:00:00 6.9 2 Sudeste 9 Nordeste 0 -- -- 91
2020-03-25 03:00:00 8.6 6 Nordeste 9 Sur 0 -- -- 87
2020-03-25 02:00:00 10 0 Calma 10 Sudeste 0 -- -- 82
2020-03-25 01:00:00 10.9 8 Sudeste 20 Sudeste 0 -- -- 77
2020-03-25 00:00:00 10.9 8 Sudeste 17 Sudeste 0 -- -- 77
2020-03-24 23:00:00 11.6 8 Este 15 Este 0 -- -- 75
2020-03-24 22:00:00 12 9 Nordeste 32 Este 0 -- -- 72
2020-03-24 21:00:00 13.6 17 Este 35 Este 0 -- -- 66
2020-03-24 20:00:00 14.7 11 Nordeste 26 Nordeste 0 -- -- 66
2020-03-24 19:00:00 15.6 17 Nordeste 29 Nordeste 0 -- -- 62
2020-03-24 18:00:00 16.1 18 Nordeste 34 Nordeste 0 -- -- 61
2020-03-24 17:00:00 16.2 19 Nordeste 36 Este 0 -- -- 61
2020-03-24 16:00:00 16.2 22 Nordeste 39 Nordeste 0 -- -- 60
2020-03-24 15:00:00 17 20 Este 44 Este 0 -- -- 56
2020-03-24 14:00:00 16.8 26 Este 46 Este 0 -- -- 55
2020-03-24 13:00:00 16.4 26 Este 44 Este 0 -- -- 58
2020-03-24 12:00:00 15.5 28 Este 45 Este 0 -- -- 62
2020-03-24 11:00:00 14.2 27 Este 44 Nordeste 0 -- -- 66
2020-03-24 10:00:00 13 20 Nordeste 40 Este 0 -- -- 75
2020-03-24 09:00:00 10.7 17 Nordeste 29 Nordeste 0 -- -- 83
2020-03-24 08:00:00 8.4 10 Norte 19 Nordeste 0 -- -- 90
2020-03-24 07:00:00 8.5 7 Nordeste 16 Nordeste 0 -- -- 90
2020-03-24 06:00:00 7.7 7 Nordeste 17 Nordeste 0 -- -- 98
2020-03-24 05:00:00 8 8 Nordeste 12 Nordeste 0 -- -- 96
2020-03-24 04:00:00 8 4 Nordeste 15 Este 0 -- -- 93
2020-03-24 03:00:00 8.5 3 Norte 10 Nordeste 0 -- -- 91
2020-03-24 02:00:00 8 4 Norte 8 Sudoeste 0 -- -- 95
2020-03-24 01:00:00 8.7 5 Nordeste 11 Este 0 -- -- 92
2020-03-24 00:00:00 8.7 7 Este 13 Sudeste 0 -- -- 91
2020-03-23 23:00:00 9.7 10 Sudeste 25 Este 0 -- -- 86
2020-03-23 22:00:00 11.5 18 Este 29 Nordeste 0 -- -- 73
2020-03-23 21:00:00 10.3 6 Nordeste 8 Nordeste 0 -- -- 78
2020-03-23 20:00:00 12 5 Este 17 Nordeste 0 -- -- 73
2020-03-23 19:00:00 13.7 9 Nordeste 18 Este 0 -- -- 65
2020-03-23 18:00:00 14.2 4 Este 13 Este 0 -- -- 64
2020-03-23 17:00:00 12.3 8 Sudeste 39 Sudeste 0 -- -- 70
2020-03-23 16:00:00 13.3 27 Sudeste 39 Sudeste 0 -- -- 64
2020-03-23 15:00:00 14.2 14 Nordeste 23 Nordeste 0 -- -- 61
2020-03-23 14:00:00 14.1 11 Este 27 Este 0 -- -- 63
2020-03-23 13:00:00 14.5 12 Este 24 Este 0 -- -- 67
2020-03-23 12:00:00 12.8 11 Nordeste 25 Este 0 -- -- 72
2020-03-23 11:00:00 11.6 12 Nordeste 23 Este 0 -- -- 79
2020-03-23 10:00:00 10.7 9 Nordeste 17 Este 0 -- -- 85
2020-03-23 09:00:00 8.3 3 Norte 8 Norte 0 -- -- 98
2020-03-23 08:00:00 5.8 0 Calma 3 Sudoeste 0 -- -- 96
2020-03-23 07:00:00 6.6 0 Calma 5 Sudeste 0 -- -- 96
2020-03-23 06:00:00 7.6 3 Sudeste 5 Sudeste 0 -- -- 94
2020-03-23 05:00:00 8.7 0 Calma 12 Este 0 -- -- 94
2020-03-23 04:00:00 8.9 9 Este 13 Este 0 -- -- 95
2020-03-23 03:00:00 9.4 4 Sudeste 5 Sudeste 0 -- -- 93
2020-03-23 02:00:00 9.7 4 Sudoeste 5 Sur 0 -- -- 93
2020-03-23 01:00:00 9.6 2 Sur 5 Sur 0 -- -- 91
2020-03-23 00:00:00 9.7 5 Sudeste 15 Este 0 -- -- 88
2020-03-22 23:00:00 10 12 Este 20 Este 0.2 -- -- 87
2020-03-22 22:00:00 10.1 0 Calma 3 Sur 0 -- -- 90
2020-03-22 21:00:00 10.7 0 Calma 14 Norte 0 -- -- 83
2020-03-22 20:00:00 11.2 13 Norte 22 Norte 0 -- -- 83
2020-03-22 19:00:00 13.5 13 Nordeste 22 Este 0 -- -- 65
2020-03-22 18:00:00 14.5 12 Noroeste 28 Noroeste 0 -- -- 56
2020-03-22 17:00:00 14.4 5 Norte 18 Norte 0 -- -- 57
2020-03-22 16:00:00 13.4 8 Nordeste 19 Norte 0 -- -- 65
2020-03-22 15:00:00 14.3 7 Nordeste 16 Norte 0 -- -- 66
2020-03-22 14:00:00 13.2 11 Norte 21 Norte 0 -- -- 68
2020-03-22 13:00:00 12.1 9 Nordeste 19 Norte 0 -- -- 69
2020-03-22 12:00:00 12.2 8 Este 17 Este 0 -- -- 73
2020-03-22 11:00:00 10.5 7 Nordeste 16 Este 0 -- -- 80
2020-03-22 10:00:00 9.1 4 Nordeste 10 Nordeste 0 -- -- 86
2020-03-22 09:00:00 8 7 Nordeste 12 Nordeste 0 -- -- 91
2020-03-22 08:00:00 6.2 8 Este 10 Este 0 -- -- 98
2020-03-22 07:00:00 5.9 0 Calma 9 Sudeste 0.2 -- -- 96
2020-03-22 06:00:00 6.7 7 Sudeste 13 Sudeste 0 -- -- 95
2020-03-22 05:00:00 7.3 8 Sudeste 13 Sudeste 0 -- -- 96
2020-03-22 04:00:00 7.3 7 Sudeste 14 Sudeste 0 -- -- 96
2020-03-22 03:00:00 7.6 10 Sudeste 13 Este 0 -- -- 96
2020-03-22 02:00:00 7.4 3 Este 5 Sudeste 0 -- -- 96
2020-03-22 01:00:00 7.2 4 Sudeste 8 Sudeste 0 -- -- 95
2020-03-22 00:00:00 7.5 7 Sudeste 11 Sudeste 0 -- -- 92
2020-03-21 23:00:00 7.8 5 Sudeste 9 Sudeste 0 -- -- 93
2020-03-21 22:00:00 7.7 3 Sudeste 9 Este 0 -- -- 92
2020-03-21 21:00:00 7.5 7 Este 15 Este 0.2 -- -- 93
2020-03-21 20:00:00 8 7 Este 21 Sudeste 0.2 -- -- 91
2020-03-21 19:00:00 8.6 15 Sudeste 27 Sudeste 0 -- -- 88
2020-03-21 18:00:00 9.3 18 Sudeste 26 Sudeste 0 -- -- 83
2020-03-21 17:00:00 10.1 20 Sudeste 33 Sudeste 0 -- -- 77
2020-03-21 16:00:00 10.7 18 Sur 30 Sudeste 0.4 -- -- 84
2020-03-21 15:00:00 10.5 21 Sur 41 Sudeste 0.2 -- -- 83
2020-03-21 14:00:00 13.4 22 Sudeste 31 Sur 0 -- -- 64
2020-03-21 13:00:00 12.7 17 Sur 26 Sur 0 -- -- 70
2020-03-21 12:00:00 12.3 15 Sur 27 Sur 0 -- -- 70
2020-03-21 11:00:00 11.2 12 Sur 23 Sudeste 0 -- -- 73
2020-03-21 10:00:00 9.6 13 Sur 23 Sur 0 -- -- 81
2020-03-21 09:00:00 8.9 10 Sur 17 Sur 0 -- -- 88
2020-03-21 08:00:00 7.2 12 Sudoeste 23 Sudoeste 0 -- -- 92
2020-03-21 07:00:00 7.6 15 Sudoeste 21 Sudoeste 0 -- -- 92
2020-03-21 06:00:00 8.2 10 Sudoeste 20 Sudoeste 0 -- -- 93
2020-03-21 05:00:00 8.7 12 Oeste 20 Oeste 0 -- -- 92
2020-03-21 04:00:00 9 2 Oeste 6 Sudoeste 1.4 -- -- 96
2020-03-21 03:00:00 9.2 3 Norte 7 Noroeste 4 -- -- 98
2020-03-21 02:00:00 9.3 0 Calma 13 Norte 6 -- -- 98
2020-03-21 01:00:00 9.4 6 Norte 13 Noroeste 4.8 -- -- 98
2020-03-21 00:00:00 9.5 2 Noroeste 13 Oeste 6.4 -- -- 98
2020-03-20 23:00:00 9.5 7 Norte 27 Noroeste 9.4 -- -- 97
2020-03-20 22:00:00 10.4 15 Oeste 30 Noroeste 0 -- -- 93
2020-03-20 21:00:00 12.5 6 Norte 10 Norte 0 -- -- 96
2020-03-20 20:00:00 12.9 5 Norte 9 Nordeste 0 -- -- 93
2020-03-20 19:00:00 13.7 5 Norte 8 Sudoeste 0 -- -- 87
2020-03-20 18:00:00 13.8 6 Sudoeste 12 Sur 0 -- -- 86
2020-03-20 17:00:00 13.7 12 Sur 27 Sur 0.6 -- -- 84
2020-03-20 16:00:00 14.5 16 Sur 28 Sudeste 0 -- -- 80
2020-03-20 15:00:00 15.5 5 Sudeste 10 Sudeste 0 -- -- 69
2020-03-20 14:00:00 15.3 5 Sur 13 Sur 0 -- -- 70
2020-03-20 13:00:00 14.3 11 Sur 19 Sudeste 0 -- -- 75
2020-03-20 12:00:00 13.9 10 Este 16 Este 0 -- -- 80
2020-03-20 11:00:00 12.6 6 Este 12 Sudeste 0 -- -- 88
2020-03-20 10:00:00 12.6 8 Sudeste 13 Sur 0 -- -- 82
2020-03-20 09:00:00 12.2 10 Sur 16 Sur 0 -- -- 82
2020-03-20 08:00:00 11.7 10 Sudeste 14 Sudeste 0 -- -- 84
2020-03-20 07:00:00 11.6 10 Sudeste 17 Sudeste 0 -- -- 84
2020-03-20 06:00:00 12.3 11 Sudeste 15 Sudeste 0 -- -- 80
2020-03-20 05:00:00 12.6 8 Sudeste 12 Sudeste 0 -- -- 81
2020-03-20 04:00:00 13.4 6 Sudeste 13 Sudeste 0 -- -- 74
2020-03-20 03:00:00 13.8 7 Sudeste 20 Sur 0 -- -- 71
2020-03-20 02:00:00 14.1 16 Sur 21 Sur 0 -- -- 70
2020-03-20 01:00:00 13.4 11 Sur 14 Sur 0 -- -- 67
2020-03-20 00:00:00 14.2 9 Sudeste 12 Sudeste 0 -- -- 67
2020-03-19 23:00:00 14.5 7 Sudeste 10 Sudeste 0 -- -- 64
2020-03-19 22:00:00 15.5 4 Sudeste 10 Sudeste 0 -- -- 61
2020-03-19 21:00:00 15.7 4 Sudeste 9 Sudeste 0 -- -- 56
2020-03-19 20:00:00 17.1 6 Sudeste 12 Sudeste 0 -- -- 53
2020-03-19 19:00:00 18.6 8 Sudeste 16 Sur 0 -- -- 49
2020-03-19 18:00:00 19.4 11 Sudeste 23 Sur 0 -- -- 45
2020-03-19 17:00:00 20.9 12 Sudeste 27 Sudeste 0 -- -- 43
2020-03-19 16:00:00 20.6 10 Este 22 Sudeste 0 -- -- 42
2020-03-19 15:00:00 20.5 9 Nordeste 22 Este 0 -- -- 43
2020-03-19 14:00:00 20.1 5 Sudeste 22 Este 0 -- -- 45
2020-03-19 13:00:00 18.7 10 Nordeste 20 Nordeste 0 -- -- 50
2020-03-19 12:00:00 17.2 10 Nordeste 19 Nordeste 0 -- -- 54
2020-03-19 11:00:00 15.3 8 Este 14 Este 0 -- -- 64
2020-03-19 10:00:00 12.6 8 Sudeste 12 Sudeste 0 -- -- 73
2020-03-19 09:00:00 9.5 8 Sur 11 Sur 0 -- -- 84
2020-03-19 08:00:00 6 4 Sudeste 6 Sudeste 0 -- -- 93
2020-03-19 07:00:00 6.4 3 Sur 7 Sudeste 0 -- -- 84
2020-03-19 06:00:00 7.8 6 Sudeste 9 Sudeste 0 -- -- 85
2020-03-19 05:00:00 9.1 8 Sudeste 17 Sudeste 0 -- -- 82
2020-03-19 04:00:00 8.4 11 Sur 15 Sudeste 0 -- -- 85
2020-03-19 03:00:00 7.3 4 Sudoeste 6 Sur 0 -- -- 82
2020-03-19 02:00:00 8.6 3 Sudeste 6 Sur 0 -- -- 78
2020-03-19 01:00:00 10.5 5 Sudeste 11 Sudeste 0 -- -- 70
2020-03-19 00:00:00 11.1 3 Sudeste 8 Sudoeste 0 -- -- 73
2020-03-18 23:00:00 13.5 4 Sudeste 19 Este 0 -- -- 65
2020-03-18 22:00:00 15.2 13 Este 24 Este 0 -- -- 60
2020-03-18 21:00:00 15.7 9 Nordeste 27 Nordeste 0 -- -- 59
2020-03-18 20:00:00 17.6 17 Nordeste 30 Este 0 -- -- 53
2020-03-18 19:00:00 20.3 14 Nordeste 25 Este 0 -- -- 46
2020-03-18 18:00:00 21.2 17 Este 31 Este 0 -- -- 43
2020-03-18 17:00:00 21.5 14 Este 29 Nordeste 0 -- -- 43
2020-03-18 16:00:00 21 12 Este 24 Este 0 -- -- 45
2020-03-18 15:00:00 19.7 14 Este 30 Sudeste 0 -- -- 47
2020-03-18 14:00:00 19.9 18 Este 31 Este 0 -- -- 47
2020-03-18 13:00:00 19.1 19 Este 33 Este 0 -- -- 50
2020-03-18 12:00:00 17.6 14 Nordeste 29 Nordeste 0 -- -- 55
2020-03-18 11:00:00 15.9 14 Este 28 Este 0 -- -- 61
2020-03-18 10:00:00 13.9 18 Este 28 Nordeste 0 -- -- 68
2020-03-18 09:00:00 12 14 Este 25 Este 0 -- -- 75
2020-03-18 08:00:00 10.6 14 Este 28 Nordeste 0 -- -- 79
2020-03-18 07:00:00 10.5 13 Este 30 Este 0 -- -- 80
2020-03-18 06:00:00 11 22 Este 38 Este 0 -- -- 81
2020-03-18 05:00:00 11.2 14 Este 24 Nordeste 0 -- -- 83
2020-03-18 04:00:00 11.2 8 Nordeste 19 Nordeste 0 -- -- 85
2020-03-18 03:00:00 11.5 11 Este 19 Este 0 -- -- 84
2020-03-18 02:00:00 12 9 Este 23 Este 0 -- -- 83
2020-03-18 01:00:00 11.4 9 Nordeste 14 Nordeste 0 -- -- 83
2020-03-18 00:00:00 11.2 10 Nordeste 18 Este 0 -- -- 71
2020-03-17 23:00:00 11.2 10 Nordeste 15 Nordeste 0 -- -- 64
2020-03-17 22:00:00 10.1 0 Calma 8 Norte 0 -- -- 80
2020-03-17 21:00:00 12.6 7 Nordeste 16 Nordeste 0.2 -- -- 60
2020-03-17 20:00:00 14.2 8 Nordeste 24 Este 0 -- -- 46
2020-03-17 19:00:00 16.2 15 Este 35 Nordeste 0 -- -- 40
2020-03-17 18:00:00 16.6 23 Nordeste 36 Este 0 -- -- 38
2020-03-17 17:00:00 16.6 19 Este 41 Este 0 -- -- 38
2020-03-17 16:00:00 16.6 23 Este 37 Este 0 -- -- 40
2020-03-17 15:00:00 16 22 Sudeste 39 Este 0 -- -- 43
2020-03-17 14:00:00 14.9 23 Este 39 Sudeste 0 -- -- 47
2020-03-17 13:00:00 13.4 27 Este 45 Sudeste 0 -- -- 55
2020-03-17 12:00:00 11.8 27 Este 42 Este 0 -- -- 63
2020-03-17 11:00:00 10.3 20 Este 36 Este 0 -- -- 73
2020-03-17 10:00:00 7.2 17 Este 29 Este 0 -- -- 86
2020-03-17 09:00:00 5.1 11 Nordeste 17 Nordeste 0 -- -- 92
2020-03-17 08:00:00 4.1 8 Este 17 Este 0 -- -- 94
2020-03-17 07:00:00 5.2 12 Este 22 Este 0.4 -- -- 91
2020-03-17 06:00:00 5.3 9 Nordeste 17 Nordeste 0.2 -- -- 93
2020-03-17 05:00:00 4.9 8 Nordeste 14 Este 0 -- -- 91
2020-03-17 04:00:00 4.8 8 Nordeste 14 Nordeste 0 -- -- 92
2020-03-17 03:00:00 4.4 3 Norte 9 Norte 0 -- -- 92
2020-03-17 02:00:00 3.9 4 Norte 13 Norte 0 -- -- 94
2020-03-17 01:00:00 3.9 6 Norte 9 Noroeste 0 -- -- 93
2020-03-17 00:00:00 3.6 6 Noroeste 9 Norte 0 -- -- 93
2020-03-16 23:00:00 4.6 5 Norte 16 Norte 0 -- -- 89
2020-03-16 22:00:00 6.1 13 Norte 34 Norte 0 -- -- 85
2020-03-16 21:00:00 6.9 19 Norte 32 Norte 0 -- -- 86
2020-03-16 20:00:00 6.4 17 Noroeste 36 Noroeste 0.6 -- -- 91
2020-03-16 19:00:00 7.1 26 Noroeste 49 Norte 1 -- -- 81
2020-03-16 18:00:00 8.3 36 Noroeste 57 Noroeste 0 -- -- 71
2020-03-16 17:00:00 8.2 36 Noroeste 59 Noroeste 0 -- -- 69
2020-03-16 16:00:00 9.1 39 Noroeste 62 Norte 0 -- -- 62
2020-03-16 15:00:00 10.2 31 Noroeste 52 Noroeste 0 -- -- 52
2020-03-16 14:00:00 9.7 30 Noroeste 52 Norte 0 -- -- 61
2020-03-16 13:00:00 10.4 31 Noroeste 46 Noroeste 0 -- -- 49
2020-03-16 12:00:00 10.9 29 Noroeste 46 Noroeste 0 -- -- 49
2020-03-16 11:00:00 9.2 23 Noroeste 40 Noroeste 0 -- -- 56
2020-03-16 10:00:00 7.1 27 Noroeste 44 Noroeste 0 -- -- 65
2020-03-16 09:00:00 5 23 Oeste 34 Oeste 0 -- -- 80
2020-03-16 08:00:00 3.5 23 Oeste 35 Oeste 0 -- -- 87
2020-03-16 07:00:00 3.8 24 Oeste 35 Oeste 0 -- -- 85
2020-03-16 06:00:00 4.1 21 Oeste 31 Oeste 0 -- -- 82
2020-03-16 05:00:00 4.4 21 Oeste 32 Oeste 0 -- -- 77
2020-03-16 04:00:00 4.5 18 Oeste 32 Oeste 0 -- -- 75
2020-03-16 03:00:00 4.9 23 Oeste 39 Oeste 0 -- -- 76
2020-03-16 02:00:00 5.6 21 Oeste 35 Oeste 0 -- -- 76
2020-03-16 01:00:00 6.8 23 Noroeste 43 Noroeste 0 -- -- 73
2020-03-16 00:00:00 8.6 29 Noroeste 43 Noroeste 0 -- -- 68
2020-03-15 23:00:00 10.1 30 Noroeste 46 Noroeste 0 -- -- 72
2020-03-15 22:00:00 11.7 31 Noroeste 46 Oeste 0 -- -- 67
2020-03-15 21:00:00 14.2 30 Noroeste 43 Noroeste 0 -- -- 56
2020-03-15 20:00:00 15.5 27 Oeste 39 Oeste 0 -- -- 67
2020-03-15 19:00:00 16.7 31 Oeste 43 Oeste 0 -- -- 64
2020-03-15 18:00:00 18.7 26 Noroeste 40 Oeste 0 -- -- 58
2020-03-15 17:00:00 21.3 26 Oeste 41 Oeste 0 -- -- 46
2020-03-15 16:00:00 22.3 23 Oeste 35 Sudoeste 0 -- -- 45
2020-03-15 15:00:00 22.5 20 Sudoeste 33 Sudoeste 0 -- -- 48
2020-03-15 14:00:00 21 11 Oeste 21 Oeste 0 -- -- 53
2020-03-15 13:00:00 20.6 8 Oeste 23 Oeste 0 -- -- 52
2020-03-15 12:00:00 20.7 9 Oeste 21 Oeste 0 -- -- 54
2020-03-15 11:00:00 19.4 9 Sudoeste 17 Sudoeste 0 -- -- 57
2020-03-15 10:00:00 17.8 10 Sudoeste 18 Sur 0 -- -- 64
2020-03-15 09:00:00 14.2 8 Sur 11 Sur 0 -- -- 77
2020-03-15 08:00:00 10.6 4 Sudeste 10 Sur 0 -- -- 85
2020-03-15 07:00:00 7.7 4 Sudeste 6 Sudeste 0 -- -- 79
2020-03-15 06:00:00 7.9 2 Sudeste 6 Sudeste 0 -- -- 75
2020-03-15 05:00:00 8.1 4 Sudeste 6 Sur 0 -- -- 74
2020-03-15 04:00:00 8.3 5 Sudeste 7 Sur 0 -- -- 72
2020-03-15 03:00:00 9.2 4 Sudeste 5 Sudeste 0 -- -- 66
2020-03-15 02:00:00 9.8 4 Sur 5 Sur 0 -- -- 67
2020-03-15 01:00:00 11.5 4 Sur 7 Sudeste 0 -- -- 61
2020-03-15 00:00:00 14.2 4 Sur 8 Sur 0 -- -- 60
2020-03-14 23:00:00 15.1 3 Sur 7 Sur 0 -- -- 59
2020-03-14 22:00:00 14.5 4 Sur 6 Sur 0 -- -- 58
2020-03-14 21:00:00 16.3 0 Calma 9 Nordeste 0 -- -- 56
2020-03-14 20:00:00 19 7 Nordeste 21 Norte 0 -- -- 51
2020-03-14 19:00:00 21.1 13 Norte 22 Norte 0 -- -- 47
2020-03-14 18:00:00 22.1 14 Norte 24 Norte 0 -- -- 46
2020-03-14 17:00:00 22.9 15 Norte 32 Norte 0 -- -- 47
2020-03-14 16:00:00 23.2 12 Nordeste 28 Norte 0 -- -- 48
2020-03-14 15:00:00 22.2 9 Nordeste 20 Nordeste 0 -- -- 50
2020-03-14 14:00:00 22.5 10 Noroeste 21 Norte 0 -- -- 51
2020-03-14 13:00:00 21.5 9 Noroeste 18 Oeste 0 -- -- 53
2020-03-14 12:00:00 20.1 5 Oeste 13 Sudoeste 0 -- -- 60
2020-03-14 11:00:00 18.2 5 Sur 9 Sur 0 -- -- 66
2020-03-14 10:00:00 15.5 6 Sur 10 Sur 0 -- -- 77
2020-03-14 09:00:00 10.6 3 Sur 6 Sur 0 -- -- 97
2020-03-14 08:00:00 6.4 0 Calma 4 Sudeste 0 -- -- 94
2020-03-14 07:00:00 7.1 4 Sudeste 6 Sudeste 0 -- -- 95
2020-03-14 06:00:00 7.1 3 Sur 10 Sur 0 -- -- 93
2020-03-14 05:00:00 7.3 4 Sudeste 6 Sur 0 -- -- 90
2020-03-14 04:00:00 8.4 3 Sudoeste 8 Sudoeste 0 -- -- 94
2020-03-14 03:00:00 8.1 4 Sur 6 Sudoeste 0 -- -- 89
2020-03-14 02:00:00 9.2 0 Calma 9 Sur 0 -- -- 87
2020-03-14 01:00:00 9.5 6 Sur 9 Sur 0 -- -- 91
2020-03-14 00:00:00 10.4 3 Sudoeste 8 Sudoeste 0 -- -- 85
2020-03-13 23:00:00 10.3 8 Sudoeste 9 Sudoeste 0 -- -- 81
2020-03-13 22:00:00 12.3 5 Oeste 11 Oeste 0 -- -- 78
2020-03-13 21:00:00 13.8 7 Oeste 15 Noroeste 0 -- -- 74
2020-03-13 20:00:00 15.4 10 Noroeste 17 Noroeste 0 -- -- 69
2020-03-13 19:00:00 17.3 14 Noroeste 21 Noroeste 0 -- -- 65
2020-03-13 18:00:00 18.8 14 Noroeste 23 Noroeste 0 -- -- 61
2020-03-13 17:00:00 20.2 15 Noroeste 24 Noroeste 0 -- -- 56
2020-03-13 16:00:00 20.3 12 Noroeste 22 Norte 0 -- -- 56
2020-03-13 15:00:00 19.3 11 Noroeste 21 Noroeste 0 -- -- 57
2020-03-13 14:00:00 17.1 9 Noroeste 18 Noroeste 0 -- -- 66
2020-03-13 13:00:00 15.4 12 Noroeste 19 Norte 0 -- -- 74
2020-03-13 12:00:00 13.8 7 Noroeste 12 Noroeste 0 -- -- 80
2020-03-13 11:00:00 11.1 4 Oeste 9 Oeste 0 -- -- 95
2020-03-13 10:00:00 9.6 0 Calma 4 Norte 0 -- -- 98
2020-03-13 09:00:00 8 3 Norte 5 Norte 0 -- -- 98
2020-03-13 08:00:00 6.9 2 Norte 9 Norte 0 -- -- 95
2020-03-13 07:00:00 6.6 2 Sudeste 5 Sur 0 -- -- 91
2020-03-13 06:00:00 8.2 0 Calma 6 Sur 0 -- -- 92
2020-03-13 05:00:00 8.7 5 Sur 7 Sur 0 -- -- 87
2020-03-13 04:00:00 8.8 2 Sur 6 Sur 0 -- -- 85
2020-03-13 03:00:00 9.1 6 Sur 7 Sur 0 -- -- 75
2020-03-13 02:00:00 11.5 3 Sur 8 Sudoeste 0 -- -- 76
2020-03-13 01:00:00 11.9 9 Sudoeste 11 Sudoeste 0 -- -- 70
2020-03-13 00:00:00 12.4 9 Sudoeste 10 Sudoeste 0 -- -- 67
2020-03-12 23:00:00 13.3 9 Sudoeste 10 Sudoeste 0 -- -- 65
2020-03-12 22:00:00 14.1 8 Sudoeste 13 Oeste 0 -- -- 60
2020-03-12 21:00:00 17.2 9 Oeste 14 Oeste 0 -- -- 55
2020-03-12 20:00:00 19.4 10 Sudoeste 20 Sudoeste 0 -- -- 47
2020-03-12 19:00:00 22.6 12 Sudoeste 20 Sudoeste 0 -- -- 41
2020-03-12 18:00:00 23.5 13 Sudoeste 27 Sudoeste 0 -- -- 39
2020-03-12 17:00:00 23.6 15 Sudoeste 28 Sudoeste 0 -- -- 34
2020-03-12 16:00:00 24.9 19 Sudoeste 36 Sudoeste 0 -- -- 33
2020-03-12 15:00:00 25.9 17 Sudoeste 30 Sudoeste 0 -- -- 32
2020-03-12 14:00:00 24.8 14 Sudoeste 23 Sudoeste 0 -- -- 33
2020-03-12 13:00:00 23.4 11 Sur 26 Sur 0 -- -- 37
2020-03-12 12:00:00 22.6 10 Sur 21 Sudeste 0 -- -- 38
2020-03-12 11:00:00 20.9 12 Sudeste 19 Sudeste 0 -- -- 42
2020-03-12 10:00:00 18.9 8 Sudeste 15 Sudeste 0 -- -- 46
2020-03-12 09:00:00 13.7 9 Sudeste 13 Sudeste 0 -- -- 60
2020-03-12 08:00:00 12 4 Sudeste 15 Sudeste 0 -- -- 61
2020-03-12 07:00:00 11.5 7 Sudeste 13 Sur 0 -- -- 65
2020-03-12 06:00:00 9.7 7 Sur 11 Sur 0 -- -- 66
2020-03-12 05:00:00 9.8 3 Sudeste 6 Sur 0 -- -- 63
2020-03-12 04:00:00 11.2 2 Sur 14 Sudeste 0 -- -- 56
2020-03-12 03:00:00 11.5 3 Sudeste 10 Este 0 -- -- 60
2020-03-12 02:00:00 12.7 0 Calma 10 Sudeste 0 -- -- 56
2020-03-12 01:00:00 12.7 5 Sudeste 8 Sudeste 0 -- -- 56
2020-03-12 00:00:00 13.5 0 Calma 8 Sudoeste 0 -- -- 55
2020-03-11 23:00:00 16.2 6 Sudoeste 14 Sudeste 0 -- -- 51
2020-03-11 22:00:00 18.9 12 Sudeste 18 Sudeste 0 -- -- 47
2020-03-11 21:00:00 19.9 13 Sudeste 20 Sudeste 0 -- -- 47
2020-03-11 20:00:00 22.8 13 Sudeste 18 Sudeste 0 -- -- 37
2020-03-11 19:00:00 26 7 Sur 16 Sur 0 -- -- 30
2020-03-11 18:00:00 27.4 12 Sudeste 22 Sur 0 -- -- 29
2020-03-11 17:00:00 28.2 12 Sudeste 23 Sur 0 -- -- 28
2020-03-11 16:00:00 28.4 14 Sur 21 Sudeste 0 -- -- 27
2020-03-11 15:00:00 28.4 14 Sudeste 24 Sudeste 0 -- -- 25
2020-03-11 14:00:00 27.8 13 Sudeste 31 Sudeste 0 -- -- 28
2020-03-11 13:00:00 27 13 Sudeste 24 Sudeste 0 -- -- 32
2020-03-11 12:00:00 25.7 14 Sur 23 Sudeste 0 -- -- 34
2020-03-11 11:00:00 23.6 15 Sudeste 24 Sudeste 0 -- -- 37
2020-03-11 10:00:00 19.6 12 Sudeste 18 Sudeste 0 -- -- 46
2020-03-11 09:00:00 15.4 11 Sudeste 15 Sudeste 0 -- -- 55
2020-03-11 08:00:00 10.5 4 Sudeste 8 Sudeste 0 -- -- 64
2020-03-11 07:00:00 9.4 8 Sur 10 Sudeste 0 -- -- 63
2020-03-11 06:00:00 10 8 Sur 9 Sur 0 -- -- 61
2020-03-11 05:00:00 10.4 6 Sur 8 Sur 0 -- -- 64
2020-03-11 04:00:00 9.9 6 Sudeste 9 Sudeste 0 -- -- 58
2020-03-11 03:00:00 10 6 Sur 8 Sur 0 -- -- 58
2020-03-11 02:00:00 10 6 Sur 9 Sudeste 0 -- -- 53
2020-03-11 01:00:00 9.4 6 Sur 8 Sur 0 -- -- 53
2020-03-11 00:00:00 10.1 4 Sur 7 Sur 0 -- -- 49